< < Back
Terminal Aerodrome Forecast


Current Version              Previous Versions:   1  2  3  4  5  6  7  8  9  

Terminal Aerodrome Forecast

787
FTAK31 PAJN 281422 AAA
TAFAHN
TAF AMD
PAHN 281422Z 2814/2912 10010G20KT 5SM -RA BR OVC008
     FM281800 10008G18KT P6SM -SHRA SCT010 BKN020 OVC025
     FM290000 11012G22KT P6SM VCSH BKN040 OVC060
     FM290600 09010KT P6SM VCSH SCT020 BKN030 OVC050
      AMD LTD TO CLD VIS AND WIND=



Latest METAR

862
SAUS70 KWBC 281800 RRA
MTRAHN
METAR KAHN 281751Z 24008G18KT 210V270 10SM BKN045 BKN055 32/21 A3001 RMK
AO2 SLP152 T03220206 10339 20244 58009


USA.gov is the U.S. government's official web portal to all federal, state and local government web resources and services.